Time;durP1;ratioP1;P1;durP2;ratioP2;P2;SDS_P1;SDS_P2;PMS_P1;PMS_P2;Temp;Humidity;BMP_temperature;BMP_pressure;BME280_temperature;BME280_humidity;BME280_pressure;Samples;Min_cycle;Max_cycle;Signal;HPM_P1;HPM_P2
2021/05/16 00:07:04;;;;;;;5.15;1.00;;;9.90;99.90;;;;;;6687653;88;21152;-77
2021/05/16 00:17:06;;;;;;;4.45;1.00;;;9.80;99.90;;;;;;6687607;88;20264;-76
2021/05/16 00:27:06;;;;;;;6.47;1.05;;;9.80;99.90;;;;;;6687148;88;20316;-77
2021/05/16 00:37:07;;;;;;;4.75;1.10;;;9.60;99.90;;;;;;6686667;88;20196;-75
2021/05/16 00:47:07;;;;;;;7.55;0.93;;;9.60;99.90;;;;;;6686902;88;20330;-76
2021/05/16 00:57:08;;;;;;;8.88;0.90;;;9.50;99.90;;;;;;6687882;88;20233;-76
2021/05/16 01:07:09;;;;;;;4.28;0.73;;;9.50;99.90;;;;;;6686211;88;20222;-78
2021/05/16 01:17:10;;;;;;;3.33;1.02;;;9.50;99.90;;;;;;6691189;88;20207;-78
2021/05/16 01:27:13;;;;;;;7.10;1.10;;;9.50;99.90;;;;;;6690692;88;20220;-77
2021/05/16 01:37:14;;;;;;;6.20;1.17;;;9.60;99.90;;;;;;6690978;88;20282;-79
2021/05/16 01:47:15;;;;;;;7.00;1.27;;;9.60;99.90;;;;;;6693305;88;20187;-76
2021/05/16 01:57:15;;;;;;;4.75;1.10;;;9.60;99.90;;;;;;6694489;88;20203;-78
2021/05/16 02:07:16;;;;;;;5.03;1.20;;;9.50;99.90;;;;;;6690873;88;20186;-78
2021/05/16 02:17:17;;;;;;;6.15;1.23;;;9.40;99.90;;;;;;6688749;88;20496;-76
2021/05/16 02:27:17;;;;;;;5.62;1.48;;;9.40;99.90;;;;;;6687721;88;20223;-76
2021/05/16 02:37:18;;;;;;;4.15;1.10;;;9.40;99.90;;;;;;6686163;88;20281;-76
2021/05/16 02:47:19;;;;;;;5.25;1.37;;;9.30;99.90;;;;;;6685607;88;20230;-77
2021/05/16 02:57:19;;;;;;;5.45;1.42;;;9.20;99.90;;;;;;6685734;88;20682;-77
2021/05/16 03:07:20;;;;;;;3.45;1.20;;;9.10;99.90;;;;;;6684694;88;20264;-76
2021/05/16 03:17:20;;;;;;;3.70;1.02;;;9.00;99.90;;;;;;6683724;88;20212;-77
2021/05/16 03:27:21;;;;;;;5.22;1.20;;;8.90;99.90;;;;;;6683649;88;20214;-76
2021/05/16 03:37:21;;;;;;;4.07;1.10;;;8.90;99.90;;;;;;6684569;88;20217;-77
2021/05/16 03:47:22;;;;;;;6.70;1.35;;;8.90;99.90;;;;;;6681598;88;20316;-77
2021/05/16 03:57:23;;;;;;;3.20;1.00;;;8.90;99.90;;;;;;6684664;88;20257;-76
2021/05/16 04:07:23;;;;;;;5.47;1.10;;;8.80;99.90;;;;;;6685562;88;20219;-76
2021/05/16 04:17:24;;;;;;;5.53;1.30;;;8.80;99.90;;;;;;6683572;88;20499;-76
2021/05/16 04:27:25;;;;;;;5.78;1.25;;;8.90;99.90;;;;;;6682439;88;20201;-76
2021/05/16 04:37:26;;;;;;;5.55;1.30;;;9.10;99.90;;;;;;6682413;88;20210;-77
2021/05/16 04:47:27;;;;;;;5.72;1.48;;;9.30;99.90;;;;;;6686372;88;20265;-76
2021/05/16 04:57:28;;;;;;;4.80;1.50;;;9.70;99.90;;;;;;6685583;88;20765;-77
2021/05/16 05:07:29;;;;;;;6.50;1.50;;;9.60;99.90;;;;;;6697048;88;20307;-77
2021/05/16 05:17:30;;;;;;;6.32;1.83;;;9.70;99.90;;;;;;6696979;88;20196;-77
2021/05/16 05:27:30;;;;;;;4.78;1.42;;;9.70;99.90;;;;;;6701351;88;20235;-76
2021/05/16 05:37:31;;;;;;;7.25;1.80;;;9.90;99.90;;;;;;6701120;88;20651;-76
2021/05/16 05:47:32;;;;;;;5.12;1.55;;;10.00;99.90;;;;;;6697203;88;20208;-77
2021/05/16 05:57:32;;;;;;;5.50;1.60;;;10.00;99.90;;;;;;6692936;88;20278;-76
2021/05/16 06:07:33;;;;;;;7.20;1.67;;;9.90;99.90;;;;;;6691934;88;20198;-77
2021/05/16 06:17:33;;;;;;;7.87;2.15;;;9.80;99.90;;;;;;6691902;88;20187;-76
2021/05/16 06:27:34;;;;;;;5.90;2.03;;;9.70;99.90;;;;;;6691249;88;20284;-76
2021/05/16 06:37:35;;;;;;;7.05;2.40;;;9.70;99.90;;;;;;6691345;88;20704;-76
2021/05/16 06:47:36;;;;;;;5.18;2.08;;;9.70;99.90;;;;;;6690785;88;20652;-76
2021/05/16 06:57:39;;;;;;;8.88;2.58;;;9.80;99.90;;;;;;6688213;88;20180;-76
2021/05/16 07:07:40;;;;;;;5.03;1.70;;;10.20;99.90;;;;;;6683317;88;20227;-75
2021/05/16 07:17:41;;;;;;;3.90;1.65;;;10.60;99.90;;;;;;6682727;88;20767;-76
2021/05/16 07:27:41;;;;;;;5.87;1.53;;;10.80;99.90;;;;;;6682613;88;20224;-74
2021/05/16 07:37:43;;;;;;;7.72;1.50;;;10.90;99.90;;;;;;6680706;88;20526;-75
2021/05/16 07:47:44;;;;;;;3.75;1.50;;;11.20;99.90;;;;;;6678927;88;20285;-75
2021/05/16 07:57:44;;;;;;;3.80;1.70;;;11.40;99.90;;;;;;6682024;88;20242;-75
2021/05/16 08:07:45;;;;;;;7.03;1.90;;;11.40;99.90;;;;;;6685908;88;20508;-75
2021/05/16 08:17:46;;;;;;;6.18;1.75;;;11.60;99.90;;;;;;6678401;88;20547;-75
2021/05/16 08:27:46;;;;;;;5.43;1.80;;;12.10;99.90;;;;;;6683155;88;20178;-75
2021/05/16 08:37:47;;;;;;;4.40;1.80;;;12.70;99.90;;;;;;6679634;88;20293;-75
2021/05/16 08:47:48;;;;;;;2.25;0.70;;;13.60;99.90;;;;;;6679082;88;20230;-74
2021/05/16 08:57:48;;;;;;;4.82;0.90;;;15.00;99.90;;;;;;6683268;88;20234;-75
2021/05/16 09:08:00;;;;;;;3.58;0.80;;;14.50;99.90;;;;;;6683891;88;20197;-75
2021/05/16 09:18:01;;;;;;;4.65;0.80;;;14.70;99.90;;;;;;6686304;88;20195;-75
2021/05/16 09:28:13;;;;;;;3.10;0.80;;;16.00;99.90;;;;;;6683726;88;20611;-75
2021/05/16 09:38:19;;;;;;;4.18;0.90;;;15.80;99.90;;;;;;6683214;88;20191;-75
2021/05/16 09:48:29;;;;;;;3.15;0.90;;;17.20;99.90;;;;;;6683981;88;20187;-77
2021/05/16 09:58:29;;;;;;;2.62;0.82;;;18.10;99.90;;;;;;6683380;88;20317;-75
2021/05/16 10:08:31;;;;;;;3.30;0.90;;;18.90;99.90;;;;;;6682703;88;20243;-75
2021/05/16 10:18:33;;;;;;;4.82;0.82;;;17.80;99.90;;;;;;6683235;88;20367;-75
2021/05/16 10:28:53;;;;;;;3.75;0.82;;;17.70;96.50;;;;;;6683157;88;20691;-76
2021/05/16 10:38:53;;;;;;;3.28;0.75;;;17.70;99.70;;;;;;6682902;88;20191;-75
2021/05/16 10:49:19;;;;;;;3.20;1.00;;;18.20;99.40;;;;;;6683362;88;20752;-76
2021/05/16 10:59:37;;;;;;;3.60;0.75;;;19.30;95.60;;;;;;6683174;88;20286;-74
2021/05/16 11:09:37;;;;;;;2.67;0.70;;;18.70;93.50;;;;;;6681453;88;20194;-75
2021/05/16 11:19:39;;;;;;;2.15;0.60;;;16.80;99.90;;;;;;6683864;88;20192;-76
2021/05/16 11:29:40;;;;;;;2.53;0.70;;;15.50;99.90;;;;;;6685767;88;20654;-74
2021/05/16 11:39:40;;;;;;;2.10;0.57;;;16.50;99.90;;;;;;6688730;88;20220;-77
2021/05/16 11:49:49;;;;;;;1.42;0.40;;;18.40;98.50;;;;;;6686288;88;20203;-73
2021/05/16 11:59:50;;;;;;;2.42;0.60;;;16.30;99.90;;;;;;6685018;88;20693;-75
2021/05/16 12:09:51;;;;;;;1.52;0.60;;;15.80;99.90;;;;;;6682070;88;20222;-78
2021/05/16 12:19:51;;;;;;;2.53;0.60;;;17.30;99.90;;;;;;6684254;88;20811;-77
2021/05/16 12:29:53;;;;;;;2.37;0.70;;;19.60;99.90;;;;;;6690681;88;20257;-77
2021/05/16 12:39:57;;;;;;;3.17;0.73;;;20.80;95.80;;;;;;6685002;88;20314;-78
2021/05/16 12:50:08;;;;;;;4.53;0.77;;;19.90;94.90;;;;;;6685771;88;20251;-77
2021/05/16 13:00:09;;;;;;;3.20;1.30;;;18.20;97.80;;;;;;6687277;88;20228;-76
2021/05/16 13:10:30;;;;;;;3.08;0.80;;;14.30;99.90;;;;;;6686363;88;20234;-76
2021/05/16 13:20:31;;;;;;;2.75;0.50;;;12.90;99.90;;;;;;6687664;88;20257;-75
2021/05/16 13:30:32;;;;;;;3.78;0.65;;;11.60;99.90;;;;;;6682390;88;20190;-76
2021/05/16 13:40:33;;;;;;;4.60;0.90;;;11.80;99.90;;;;;;6684744;88;20217;-76
2021/05/16 13:50:33;;;;;;;4.28;0.75;;;12.30;99.90;;;;;;6683748;88;20191;-75
2021/05/16 14:00:34;;;;;;;2.12;0.75;;;14.00;99.90;;;;;;6679872;88;20325;-76
2021/05/16 14:10:34;;;;;;;1.62;0.50;;;14.80;99.90;;;;;;6682596;88;20193;-76
2021/05/16 14:20:35;;;;;;;2.87;0.77;;;14.90;99.90;;;;;;6683228;88;20370;-76
2021/05/16 14:30:37;;;;;;;1.73;0.55;;;14.20;99.90;;;;;;6685031;88;20264;-75
2021/05/16 14:40:38;;;;;;;2.00;0.40;;;12.50;99.90;;;;;;6687284;88;20333;-76
2021/05/16 14:51:27;;;;;;;5.40;0.65;;;11.50;99.90;;;;;;6682923;89;20195;-76
2021/05/16 15:01:00;;;;;;;1.73;0.50;;;11.10;99.90;;;;;;6684209;88;20186;-75
2021/05/16 15:11:01;;;;;;;1.17;0.40;;;11.50;99.90;;;;;;6684133;88;20190;-75
2021/05/16 15:21:04;;;;;;;1.58;0.40;;;12.40;99.90;;;;;;6681691;89;20211;-75
2021/05/16 15:31:04;;;;;;;1.65;0.60;;;12.10;99.90;;;;;;6683543;88;20337;-75
2021/05/16 15:41:05;;;;;;;1.20;0.60;;;13.00;99.90;;;;;;6679964;89;20206;-74
2021/05/16 15:51:06;;;;;;;2.25;0.50;;;13.00;99.90;;;;;;6681008;89;20559;-77
2021/05/16 16:01:07;;;;;;;1.17;0.55;;;12.70;99.90;;;;;;6684056;88;20197;-77
2021/05/16 16:11:09;;;;;;;2.25;0.90;;;12.70;99.90;;;;;;6685405;88;20186;-75
2021/05/16 16:21:10;;;;;;;1.87;0.50;;;14.10;99.90;;;;;;6686563;88;20239;-75
2021/05/16 16:31:10;;;;;;;3.03;0.40;;;15.00;99.90;;;;;;6688352;88;20191;-76
2021/05/16 16:41:12;;;;;;;3.40;0.50;;;14.40;99.90;;;;;;6684748;88;20545;-77
2021/05/16 16:51:13;;;;;;;1.10;0.40;;;14.40;99.90;;;;;;6689227;88;20239;-76
2021/05/16 17:01:14;;;;;;;3.60;0.50;;;14.60;99.90;;;;;;6689181;88;20656;-77
2021/05/16 17:11:14;;;;;;;1.67;0.70;;;14.00;99.90;;;;;;6686352;88;20294;-76
2021/05/16 17:21:15;;;;;;;1.35;0.50;;;13.30;99.90;;;;;;6689733;88;20202;-78
2021/05/16 17:31:15;;;;;;;2.80;0.50;;;13.10;99.90;;;;;;6687740;88;20230;-78
2021/05/16 17:41:17;;;;;;;3.78;0.60;;;11.90;99.90;;;;;;6692914;88;20195;-78
2021/05/16 17:51:18;;;;;;;2.83;0.90;;;10.40;99.90;;;;;;6690983;88;20251;-78
2021/05/16 18:01:18;;;;;;;1.30;0.60;;;10.40;99.90;;;;;;6686854;88;20220;-79
2021/05/16 18:11:23;;;;;;;1.50;0.50;;;10.50;99.90;;;;;;6690236;88;20246;-79
2021/05/16 18:21:24;;;;;;;3.70;0.70;;;11.90;99.90;;;;;;6685378;88;20356;-79
2021/05/16 18:31:27;;;;;;;2.28;0.50;;;13.10;99.90;;;;;;6684564;88;20237;-78
2021/05/16 18:41:27;;;;;;;2.83;0.62;;;12.10;99.90;;;;;;6685331;88;20257;-78
2021/05/16 18:51:28;;;;;;;2.45;1.15;;;11.90;99.90;;;;;;6687716;88;20235;-77
2021/05/16 19:01:29;;;;;;;2.10;1.10;;;11.10;99.90;;;;;;6674670;88;20194;-78
2021/05/16 19:11:30;;;;;;;3.03;1.23;;;10.80;99.90;;;;;;6682939;89;20228;-78
2021/05/16 19:21:30;;;;;;;3.80;1.30;;;10.50;99.90;;;;;;6686219;89;20222;-78
2021/05/16 19:31:33;;;;;;;4.05;0.90;;;10.40;99.90;;;;;;6688035;88;20599;-78
2021/05/16 19:41:36;;;;;;;3.60;0.93;;;10.30;99.90;;;;;;6684332;88;20208;-77
2021/05/16 19:51:37;;;;;;;1.55;0.73;;;10.10;99.90;;;;;;6690884;88;20311;-78
2021/05/16 20:01:39;;;;;;;1.77;1.00;;;10.00;99.90;;;;;;6687647;88;20215;-78
2021/05/16 20:11:40;;;;;;;2.62;1.15;;;9.90;99.90;;;;;;6685004;88;20256;-77
2021/05/16 20:21:41;;;;;;;3.37;1.25;;;9.70;99.90;;;;;;6690557;88;20222;-78
2021/05/16 20:31:45;;;;;;;2.92;0.93;;;9.50;99.90;;;;;;6684234;88;20223;-77
2021/05/16 20:41:45;;;;;;;1.87;0.98;;;9.50;99.90;;;;;;6680527;88;20191;-77
2021/05/16 20:51:46;;;;;;;2.37;1.00;;;9.50;99.90;;;;;;6685389;88;20546;-78
2021/05/16 21:01:47;;;;;;;2.62;1.10;;;9.40;99.90;;;;;;6687086;88;20205;-75
2021/05/16 21:11:47;;;;;;;4.47;1.10;;;9.30;99.90;;;;;;6686080;88;20186;-76
2021/05/16 21:21:48;;;;;;;2.30;0.90;;;9.40;99.90;;;;;;6691175;88;20187;-78
2021/05/16 21:31:49;;;;;;;2.35;0.90;;;9.40;99.90;;;;;;6685507;88;20624;-75
2021/05/16 21:41:49;;;;;;;2.37;1.07;;;9.50;99.90;;;;;;6685059;88;20630;-77
2021/05/16 21:51:50;;;;;;;2.20;1.00;;;9.50;99.90;;;;;;6685830;88;20504;-75
2021/05/16 22:01:52;;;;;;;2.33;0.88;;;9.40;99.90;;;;;;6685253;88;20255;-75
2021/05/16 22:11:53;;;;;;;2.33;1.05;;;9.40;99.90;;;;;;6695502;88;20221;-77
2021/05/16 22:21:53;;;;;;;2.67;1.10;;;9.30;99.90;;;;;;6691902;88;20260;-75
2021/05/16 22:31:54;;;;;;;3.90;1.40;;;9.20;99.90;;;;;;6694866;88;20517;-75
2021/05/16 22:41:55;;;;;;;3.60;0.98;;;9.10;99.90;;;;;;6684462;88;20493;-75
2021/05/16 22:51:56;;;;;;;2.05;1.08;;;9.00;99.90;;;;;;6683101;88;20257;-76
2021/05/16 23:01:56;;;;;;;2.35;1.00;;;9.20;99.90;;;;;;6681455;88;20621;-75
2021/05/16 23:11:57;;;;;;;2.37;1.20;;;9.10;99.90;;;;;;6685227;88;20202;-74
2021/05/16 23:21:57;;;;;;;3.15;1.37;;;9.00;99.90;;;;;;6678431;88;20664;-75
2021/05/16 23:32:00;;;;;;;2.55;1.00;;;9.00;99.90;;;;;;6681028;88;20207;-75
2021/05/16 23:42:01;;;;;;;2.92;1.10;;;9.10;99.90;;;;;;6682845;88;20248;-76
2021/05/16 23:52:02;;;;;;;2.83;1.33;;;9.20;99.90;;;;;;6682322;88;20250;-76
